Isabella — 9HSL7 — position and weather

sailwx.info

Track history (hours):
 
Tides and Currents Weather Stations Pressure Air Temp Water Temp Dewpoint Dewpoint Depression Visibility Wind Speed Wind Dir Waves Ship Positions

Isabella

Last reported at 2017-Jun-26 14:58 UTC. Time now 2017-Jun-26 15:44 UTC.
Position N 36°05' E 014°57'.

Length 244 m; draft 13.7 m.

Type: Tanker. MMSI: 215545000.

Date/timePositionNaut miles runAvg speedWind from/ knotsBaromVisibWave heightAir tempDewpointWater temp
2017-Jun-26 14:58N 36°05' E 014°57'0 0.0
2017-Jun-26 14:25N 36°05' E 014°57'0 0.0
2017-Jun-26 13:25N 36°05' E 014°57'0 0.0
2017-Jun-26 12:55N 36°05' E 014°57'0 0.0
2017-Jun-26 12:25N 36°05' E 014°57'0 0.0
2017-Jun-26 11:58N 36°05' E 014°57'0 0.0
2017-Jun-26 11:28N 36°05' E 014°57'0 0.0
2017-Jun-26 10:58N 36°05' E 014°57'0 0.0
2017-Jun-26 10:28N 36°05' E 014°57'0 0.0
2017-Jun-26 09:55N 36°05' E 014°57'0 0.0
2017-Jun-26 09:28N 36°05' E 014°57'0 0.0
2017-Jun-26 08:19N 36°05' E 014°57'0 0.1
2017-Jun-26 07:49N 36°05' E 014°57'0 0.1
2017-Jun-26 07:28N 36°05' E 014°57'0 0.0
2017-Jun-26 06:49N 36°05' E 014°57'0 0.0
2017-Jun-26 06:28N 36°05' E 014°57'0 0.0
2017-Jun-26 05:49N 36°05' E 014°57'0 0.0
2017-Jun-26 05:04N 36°05' E 014°57'0 0.1
2017-Jun-26 04:55N 36°05' E 014°57'0 0.0
2017-Jun-26 04:22N 36°05' E 014°57'0 0.0
2017-Jun-26 03:04N 36°05' E 014°57'0 0.0
2017-Jun-26 02:52N 36°05' E 014°57'0 0.0
2017-Jun-26 02:28N 36°05' E 014°57'0 0.0
2017-Jun-26 01:52N 36°05' E 014°57'0 0.0
2017-Jun-26 01:28N 36°05' E 014°57'0 0.0
2017-Jun-26 00:55N 36°05' E 014°57'0 0.0
2017-Jun-26 00:25N 36°05' E 014°57'0 0.1
2017-Jun-25 23:55N 36°05' E 014°57'0 0.2
2017-Jun-25 23:30N 36°05' E 014°57'0 0.3
2017-Jun-25 23:00N 36°05' E 014°57'2 3.1
2017-Jun-25 22:30N 36°05' E 014°59'2 4.5
2017-Jun-25 22:00N 36°06' E 015°02'2 4.8
2017-Jun-25 21:30N 36°08' E 015°03'3 5.4
2017-Jun-25 20:59N 36°11' E 015°02'2 5.0
2017-Jun-25 20:30N 36°10' E 014°59'3 5.0
2017-Jun-25 19:59N 36°09' E 014°57'2 4.9
2017-Jun-25 19:30N 36°07' E 014°54'3 5.1
2017-Jun-25 19:00N 36°06' E 014°52'3 5.3
2017-Jun-25 18:30N 36°04' E 014°50'3 5.4
2017-Jun-25 18:00N 36°02' E 014°47'1 1.3
2017-Jun-25 17:30N 36°01' E 014°47'0 0.2
2017-Jun-25 17:00N 36°02' E 014°47'0 0.2
2017-Jun-25 16:30N 36°02' E 014°47'0 0.1
2017-Jun-25 16:00N 36°02' E 014°47'1 2.0
2017-Jun-25 15:30N 36°02' E 014°48'611.8
2017-Jun-25 15:00N 36°02' E 014°55'1312.6
2017-Jun-25 14:00N 36°01' E 015°11'612.6
2017-Jun-25 13:30N 36°01' E 015°19'612.6
2017-Jun-25 13:00N 36°01' E 015°27'612.5
2017-Jun-25 12:29N 36°00' E 015°35'612.6
2017-Jun-25 12:00N 36°00' E 015°42'612.6
2017-Jun-25 11:30N 36°00' E 015°50'612.7
2017-Jun-25 11:00N 36°00' E 015°58'612.8
2017-Jun-25 10:30N 35°60' E 016°06'613.0
2017-Jun-25 10:00N 35°59' E 016°13'612.9
2017-Jun-25 09:30N 35°59' E 016°21'612.8
2017-Jun-25 09:00N 35°59' E 016°29'712.7
2017-Jun-25 08:29N 35°59' E 016°37'612.7
2017-Jun-25 08:00N 35°58' E 016°45'612.7
2017-Jun-25 07:30N 35°58' E 016°53'2012.9
2017-Jun-25 05:54N 35°57' E 017°18'512.8
2017-Jun-25 05:30N 35°57' E 017°25'612.9
2017-Jun-25 05:00N 35°57' E 017°33'813.1
2017-Jun-25 04:24N 35°57' E 017°42'9213.1
2017-Jun-24 21:21N 35°53' E 019°36'2012.9
2017-Jun-24 19:47N 35°52' E 020°01'54812.3
2017-Jun-22 23:09N 35°37' E 031°16'212.7
2017-Jun-22 23:00N 35°37' E 031°18'712.5
2017-Jun-22 22:27N 35°38' E 031°26'512.4
2017-Jun-22 22:00N 35°39' E 031°33'  
Track history (hours):
 
Tides and Currents Weather Stations Pressure Air Temp Water Temp Dewpoint Dewpoint Depression Visibility Wind Speed Wind Dir Waves Ship Positions

Isabella

Last reported at 2017-Jun-26 14:58 UTC. Time now 2017-Jun-26 15:44 UTC.
Position N 36°05' E 014°57'.

Length 244 m; draft 13.7 m.

Type: Tanker. MMSI: 215545000.

Date/timePositionNaut miles runAvg speedWind from/ knotsBaromVisibWave heightAir tempDewpointWater temp
2017-Jun-26 14:58N 36°05' E 014°57'0 0.0
2017-Jun-26 14:25N 36°05' E 014°57'0 0.0
2017-Jun-26 13:25N 36°05' E 014°57'0 0.0
2017-Jun-26 12:55N 36°05' E 014°57'0 0.0
2017-Jun-26 12:25N 36°05' E 014°57'0 0.0
2017-Jun-26 11:58N 36°05' E 014°57'0 0.0
2017-Jun-26 11:28N 36°05' E 014°57'0 0.0
2017-Jun-26 10:58N 36°05' E 014°57'0 0.0
2017-Jun-26 10:28N 36°05' E 014°57'0 0.0
2017-Jun-26 09:55N 36°05' E 014°57'0 0.0
2017-Jun-26 09:28N 36°05' E 014°57'0 0.0
2017-Jun-26 08:19N 36°05' E 014°57'0 0.1
2017-Jun-26 07:49N 36°05' E 014°57'0 0.1
2017-Jun-26 07:28N 36°05' E 014°57'0 0.0
2017-Jun-26 06:49N 36°05' E 014°57'0 0.0
2017-Jun-26 06:28N 36°05' E 014°57'0 0.0
2017-Jun-26 05:49N 36°05' E 014°57'0 0.0
2017-Jun-26 05:04N 36°05' E 014°57'0 0.1
2017-Jun-26 04:55N 36°05' E 014°57'0 0.0
2017-Jun-26 04:22N 36°05' E 014°57'0 0.0
2017-Jun-26 03:04N 36°05' E 014°57'0 0.0
2017-Jun-26 02:52N 36°05' E 014°57'0 0.0
2017-Jun-26 02:28N 36°05' E 014°57'0 0.0
2017-Jun-26 01:52N 36°05' E 014°57'0 0.0
2017-Jun-26 01:28N 36°05' E 014°57'0 0.0
2017-Jun-26 00:55N 36°05' E 014°57'0 0.0
2017-Jun-26 00:25N 36°05' E 014°57'0 0.1
2017-Jun-25 23:55N 36°05' E 014°57'0 0.2
2017-Jun-25 23:30N 36°05' E 014°57'0 0.3
2017-Jun-25 23:00N 36°05' E 014°57'2 3.1
2017-Jun-25 22:30N 36°05' E 014°59'2 4.5
2017-Jun-25 22:00N 36°06' E 015°02'2 4.8
2017-Jun-25 21:30N 36°08' E 015°03'3 5.4
2017-Jun-25 20:59N 36°11' E 015°02'2 5.0
2017-Jun-25 20:30N 36°10' E 014°59'3 5.0
2017-Jun-25 19:59N 36°09' E 014°57'2 4.9
2017-Jun-25 19:30N 36°07' E 014°54'3 5.1
2017-Jun-25 19:00N 36°06' E 014°52'3 5.3
2017-Jun-25 18:30N 36°04' E 014°50'3 5.4
2017-Jun-25 18:00N 36°02' E 014°47'1 1.3
2017-Jun-25 17:30N 36°01' E 014°47'0 0.2
2017-Jun-25 17:00N 36°02' E 014°47'0 0.2
2017-Jun-25 16:30N 36°02' E 014°47'0 0.1
2017-Jun-25 16:00N 36°02' E 014°47'1 2.0
2017-Jun-25 15:30N 36°02' E 014°48'611.8
2017-Jun-25 15:00N 36°02' E 014°55'1312.6
2017-Jun-25 14:00N 36°01' E 015°11'612.6
2017-Jun-25 13:30N 36°01' E 015°19'612.6
2017-Jun-25 13:00N 36°01' E 015°27'612.5
2017-Jun-25 12:29N 36°00' E 015°35'612.6
2017-Jun-25 12:00N 36°00' E 015°42'612.6
2017-Jun-25 11:30N 36°00' E 015°50'612.7
2017-Jun-25 11:00N 36°00' E 015°58'612.8
2017-Jun-25 10:30N 35°60' E 016°06'613.0
2017-Jun-25 10:00N 35°59' E 016°13'612.9
2017-Jun-25 09:30N 35°59' E 016°21'612.8
2017-Jun-25 09:00N 35°59' E 016°29'712.7
2017-Jun-25 08:29N 35°59' E 016°37'612.7
2017-Jun-25 08:00N 35°58' E 016°45'612.7
2017-Jun-25 07:30N 35°58' E 016°53'2012.9
2017-Jun-25 05:54N 35°57' E 017°18'512.8
2017-Jun-25 05:30N 35°57' E 017°25'612.9
2017-Jun-25 05:00N 35°57' E 017°33'813.1
2017-Jun-25 04:24N 35°57' E 017°42'9213.1
2017-Jun-24 21:21N 35°53' E 019°36'2012.9
2017-Jun-24 19:47N 35°52' E 020°01'54812.3
2017-Jun-22 23:09N 35°37' E 031°16'212.7
2017-Jun-22 23:00N 35°37' E 031°18'712.5
2017-Jun-22 22:27N 35°38' E 031°26'512.4
2017-Jun-22 22:00N 35°39' E 031°33'  

Dump ship's entire track history